Lady Debora — V2QG7 — position and weather

sailwx.info

Track history (hours):
 
Tides and Currents Weather Stations Pressure Air Temp Water Temp Dewpoint Dewpoint Depression Visibility Wind Speed Wind Dir Waves Ship Positions

Lady Debora

Last reported at 2017-Mar-20 23:21 UTC. Time now 2017-Mar-24 16:12 UTC.
Position N 37°22' E 011°26'.

Length 107 m; draft 7 m.

Type: Cargo ship. MMSI: 304010760.

Date/timePositionNaut miles runAvg speedWind from/ knotsBaromVisibWave heightAir tempDewpointWater temp
2017-Mar-20 23:21N 37°22' E 011°26'910.5
2017-Mar-20 22:30N 37°20' E 011°37'1010.7
2017-Mar-20 21:32N 37°16' E 011°50'1111.4
2017-Mar-20 20:33N 37°13' E 012°03'1111.2
2017-Mar-20 19:33N 37°10' E 012°16'1010.4
2017-Mar-20 18:33N 37°07' E 012°29'1110.5
2017-Mar-20 17:32N 37°04' E 012°42'1010.1
2017-Mar-20 16:33N 37°02' E 012°54'1010.0
2017-Mar-20 15:33N 36°59' E 013°06'1010.2
2017-Mar-20 14:33N 36°56' E 013°18'1010.1
2017-Mar-20 13:33N 36°54' E 013°30'10 9.6
2017-Mar-20 12:33N 36°51' E 013°42'1010.2
2017-Mar-20 11:33N 36°48' E 013°54'1010.1
2017-Mar-20 10:33N 36°45' E 014°06'10 9.9
2017-Mar-20 09:33N 36°42' E 014°18'10 9.8
2017-Mar-20 08:33N 36°40' E 014°30'10 9.8
2017-Mar-20 07:33N 36°37' E 014°42'10 9.4
2017-Mar-20 06:30N 36°35' E 014°54'9 9.4
2017-Mar-20 05:30N 36°32' E 015°05'10 9.4
2017-Mar-20 04:27N 36°31' E 015°17'27 9.0
2017-Mar-20 01:27N 36°31' E 015°51'11 9.0
2017-Mar-20 00:13N 36°31' E 016°05'  
2017-Mar-11 12:27N 45°04' E 036°29'8 9.0
2017-Mar-11 11:33N 45°12' E 036°28'7 7.2
2017-Mar-11 10:33N 45°19' E 036°31'9 8.7
2017-Mar-11 09:33N 45°24' E 036°40'4 3.9
2017-Mar-11 08:33N 45°28' E 036°40'5 5.4
2017-Mar-11 07:33N 45°33' E 036°39'  
Track history (hours):
 
Tides and Currents Weather Stations Pressure Air Temp Water Temp Dewpoint Dewpoint Depression Visibility Wind Speed Wind Dir Waves Ship Positions

Lady Debora

Last reported at 2017-Mar-20 23:21 UTC. Time now 2017-Mar-24 16:12 UTC.
Position N 37°22' E 011°26'.

Length 107 m; draft 7 m.

Type: Cargo ship. MMSI: 304010760.

Date/timePositionNaut miles runAvg speedWind from/ knotsBaromVisibWave heightAir tempDewpointWater temp
2017-Mar-20 23:21N 37°22' E 011°26'910.5
2017-Mar-20 22:30N 37°20' E 011°37'1010.7
2017-Mar-20 21:32N 37°16' E 011°50'1111.4
2017-Mar-20 20:33N 37°13' E 012°03'1111.2
2017-Mar-20 19:33N 37°10' E 012°16'1010.4
2017-Mar-20 18:33N 37°07' E 012°29'1110.5
2017-Mar-20 17:32N 37°04' E 012°42'1010.1
2017-Mar-20 16:33N 37°02' E 012°54'1010.0
2017-Mar-20 15:33N 36°59' E 013°06'1010.2
2017-Mar-20 14:33N 36°56' E 013°18'1010.1
2017-Mar-20 13:33N 36°54' E 013°30'10 9.6
2017-Mar-20 12:33N 36°51' E 013°42'1010.2
2017-Mar-20 11:33N 36°48' E 013°54'1010.1
2017-Mar-20 10:33N 36°45' E 014°06'10 9.9
2017-Mar-20 09:33N 36°42' E 014°18'10 9.8
2017-Mar-20 08:33N 36°40' E 014°30'10 9.8
2017-Mar-20 07:33N 36°37' E 014°42'10 9.4
2017-Mar-20 06:30N 36°35' E 014°54'9 9.4
2017-Mar-20 05:30N 36°32' E 015°05'10 9.4
2017-Mar-20 04:27N 36°31' E 015°17'27 9.0
2017-Mar-20 01:27N 36°31' E 015°51'11 9.0
2017-Mar-20 00:13N 36°31' E 016°05'  
2017-Mar-11 12:27N 45°04' E 036°29'8 9.0
2017-Mar-11 11:33N 45°12' E 036°28'7 7.2
2017-Mar-11 10:33N 45°19' E 036°31'9 8.7
2017-Mar-11 09:33N 45°24' E 036°40'4 3.9
2017-Mar-11 08:33N 45°28' E 036°40'5 5.4
2017-Mar-11 07:33N 45°33' E 036°39'  

Dump ship's entire track history